Zim Rio Grande — 9HNV9 — position and weather

sailwx.info

Track history (hours):
 
Tides and Currents Weather Stations Pressure Air Temp Water Temp Dewpoint Dewpoint Depression Visibility Wind Speed Wind Dir Waves Ship Positions

Zim Rio Grande

Last reported at 2015-Jul-29 03:26 UTC. Time now 2015-Jul-29 04:52 UTC.
Position N 02°48' E 101°12'.

Length 260 m; draft 10 m.

Type: Ship (hazmat cat A). MMSI: 249253000.

Date/timePositionNaut miles runAvg speedWind from/ knotsBaromVisibWave heightAir tempDewpointWater temp
2015-Jul-29 03:26N 02°48' E 101°12'0 0.0
2015-Jul-28 23:32N 02°48' E 101°12'0 0.0
2015-Jul-28 21:32N 02°48' E 101°12'0 0.0
2015-Jul-28 19:32N 02°48' E 101°12'0 0.0
2015-Jul-28 17:31N 02°48' E 101°12'0 0.0
2015-Jul-28 16:31N 02°48' E 101°12'10 5.2
2015-Jul-28 14:33N 02°41' E 101°20'2713.7
2015-Jul-28 12:33N 02°25' E 101°42'2512.5
2015-Jul-28 10:32N 02°09' E 102°02'12013.1
2015-Jul-28 01:21N 01°09' E 103°46'1012.2
2015-Jul-28 00:33N 01°14' E 103°55'1413.5
2015-Jul-27 23:33N 01°16' E 104°08'  
2015-Jul-23 17:13N 22°06' E 114°23'1911.3
2015-Jul-23 15:33N 22°17' E 114°06'1310.3
2015-Jul-23 14:19N 22°23' E 113°54'10 0.9
2015-Jul-23 03:26N 22°32' E 113°51'4 0.9
2015-Jul-22 23:04N 22°28' E 113°52'510.0
2015-Jul-22 22:33N 22°24' E 113°54'1110.8
2015-Jul-22 21:31N 22°20' E 114°05'12 9.0
2015-Jul-22 20:09N 22°10' E 114°13'5 8.8
2015-Jul-22 19:33N 22°09' E 114°19'1111.5
2015-Jul-22 18:33N 22°10' E 114°31'28112.6
2015-Jul-21 20:20N 24°15' E 119°05'35613.3
2015-Jul-20 17:31N 29°19' E 122°34'1613.5
2015-Jul-20 16:20N 29°34' E 122°28'1013.4
2015-Jul-20 15:33N 29°43' E 122°22'1010.4
2015-Jul-20 14:33N 29°50' E 122°13'1313.2
2015-Jul-20 13:33N 29°56' E 122°00'8 7.3
2015-Jul-20 12:24N 29°57' E 121°50'0 0.0
2015-Jul-20 11:30N 29°57' E 121°50'0 0.0
2015-Jul-20 10:30N 29°57' E 121°50'0 0.0
2015-Jul-20 09:30N 29°57' E 121°50'0 0.0
2015-Jul-20 08:12N 29°57' E 121°50'0 0.0
2015-Jul-20 07:18N 29°57' E 121°50'0 0.0
2015-Jul-20 06:12N 29°57' E 121°50'0 0.0
2015-Jul-20 04:30N 29°57' E 121°50'0 0.0
2015-Jul-20 03:30N 29°57' E 121°50'1 0.7
2015-Jul-20 02:34N 29°57' E 121°50'6 5.5
2015-Jul-20 01:33N 29°58' E 121°57'1111.2
2015-Jul-20 00:33N 29°56' E 122°09'1211.9
2015-Jul-19 23:33N 29°46' E 122°18'1010.1
2015-Jul-19 22:34N 29°43' E 122°29'3 3.3
2015-Jul-19 21:33N 29°45' E 122°32'  
Track history (hours):
 
Tides and Currents Weather Stations Pressure Air Temp Water Temp Dewpoint Dewpoint Depression Visibility Wind Speed Wind Dir Waves Ship Positions

Zim Rio Grande

Last reported at 2015-Jul-29 03:26 UTC. Time now 2015-Jul-29 04:52 UTC.
Position N 02°48' E 101°12'.

Length 260 m; draft 10 m.

Type: Ship (hazmat cat A). MMSI: 249253000.

Date/timePositionNaut miles runAvg speedWind from/ knotsBaromVisibWave heightAir tempDewpointWater temp
2015-Jul-29 03:26N 02°48' E 101°12'0 0.0
2015-Jul-28 23:32N 02°48' E 101°12'0 0.0
2015-Jul-28 21:32N 02°48' E 101°12'0 0.0
2015-Jul-28 19:32N 02°48' E 101°12'0 0.0
2015-Jul-28 17:31N 02°48' E 101°12'0 0.0
2015-Jul-28 16:31N 02°48' E 101°12'10 5.2
2015-Jul-28 14:33N 02°41' E 101°20'2713.7
2015-Jul-28 12:33N 02°25' E 101°42'2512.5
2015-Jul-28 10:32N 02°09' E 102°02'12013.1
2015-Jul-28 01:21N 01°09' E 103°46'1012.2
2015-Jul-28 00:33N 01°14' E 103°55'1413.5
2015-Jul-27 23:33N 01°16' E 104°08'  
2015-Jul-23 17:13N 22°06' E 114°23'1911.3
2015-Jul-23 15:33N 22°17' E 114°06'1310.3
2015-Jul-23 14:19N 22°23' E 113°54'10 0.9
2015-Jul-23 03:26N 22°32' E 113°51'4 0.9
2015-Jul-22 23:04N 22°28' E 113°52'510.0
2015-Jul-22 22:33N 22°24' E 113°54'1110.8
2015-Jul-22 21:31N 22°20' E 114°05'12 9.0
2015-Jul-22 20:09N 22°10' E 114°13'5 8.8
2015-Jul-22 19:33N 22°09' E 114°19'1111.5
2015-Jul-22 18:33N 22°10' E 114°31'28112.6
2015-Jul-21 20:20N 24°15' E 119°05'35613.3
2015-Jul-20 17:31N 29°19' E 122°34'1613.5
2015-Jul-20 16:20N 29°34' E 122°28'1013.4
2015-Jul-20 15:33N 29°43' E 122°22'1010.4
2015-Jul-20 14:33N 29°50' E 122°13'1313.2
2015-Jul-20 13:33N 29°56' E 122°00'8 7.3
2015-Jul-20 12:24N 29°57' E 121°50'0 0.0
2015-Jul-20 11:30N 29°57' E 121°50'0 0.0
2015-Jul-20 10:30N 29°57' E 121°50'0 0.0
2015-Jul-20 09:30N 29°57' E 121°50'0 0.0
2015-Jul-20 08:12N 29°57' E 121°50'0 0.0
2015-Jul-20 07:18N 29°57' E 121°50'0 0.0
2015-Jul-20 06:12N 29°57' E 121°50'0 0.0
2015-Jul-20 04:30N 29°57' E 121°50'0 0.0
2015-Jul-20 03:30N 29°57' E 121°50'1 0.7
2015-Jul-20 02:34N 29°57' E 121°50'6 5.5
2015-Jul-20 01:33N 29°58' E 121°57'1111.2
2015-Jul-20 00:33N 29°56' E 122°09'1211.9
2015-Jul-19 23:33N 29°46' E 122°18'1010.1
2015-Jul-19 22:34N 29°43' E 122°29'3 3.3
2015-Jul-19 21:33N 29°45' E 122°32'  

Dump ship's entire track history